• Join FlightAware (Why Join?)
  • Login
  • US Flag 
07:15PM EST


 

Airport Tracker/Info


-or-


 

Live Flight TrackerFlight Track Log ✈ EVA18 ✈ 27-Sep-2013 ✈ RCTP / TPE - KSFO

Flight Track Log - Related Links

Times and Time Zones

All times are in EDT time to prevent confusion due to time zone crossing. See the EVA18 flight status page for this flight to view local times or setup timezone preferences in your user account.

Time Position Orientation Groundspeed Altitude Reporting Facility
EDT Latitude Longitude Course Direction KTS MPH feet Rate Location/Type
08:18AM 25.0670 121.2310 42° Northeast 115 132  Level FlightAware
08:19AM 25.0770 121.2440 50° Northeast 175 201 1,620 Level FlightAware
08:19AM 25.0900 121.2600 48° Northeast 186 214 1,200 2,820 Climbing FlightAware
08:19AM 25.1020 121.2740 47° Northeast 184 212 2,000 1,620 Climbing FlightAware
08:20AM 25.1130 121.2900 53° Northeast 211 243 2,300 1,020 Climbing FlightAware
08:20AM 25.1270 121.3070 48° Northeast 230 265 2,700 1,500 Climbing FlightAware
08:20AM 25.1420 121.3240 46° Northeast 243 280 3,300 1,860 Climbing FlightAware
08:21AM 25.1550 121.3380 44° Northeast 250 288 3,800 2,160 Climbing FlightAware
08:21AM 25.1710 121.3570 47° Northeast 258 297 4,600 1,860 Climbing FlightAware
08:21AM 25.1890 121.3780 47° Northeast 274 315 5,100 1,740 Climbing FlightAware
08:21AM 25.2010 121.3960 54° Northeast 269 310 5,700 1,440 Climbing FlightAware
08:22AM 25.2110 121.4250 69° East 290 334 6,000 900 Climbing FlightAware
08:22AM 25.2170 121.4510 76° East 308 354 6,300 1,320 Climbing FlightAware
08:23AM 25.2280 121.4920 73° East 324 373 7,000 2,160 Climbing FlightAware
08:23AM 25.2370 121.5240 73° East 316 364 8,000 2,760 Climbing FlightAware
08:23AM 25.2450 121.5520 72° East 313 360 8,800 2,520 Climbing FlightAware
08:24AM 25.2530 121.5840 75° East 313 360 9,700 1,620 Climbing FlightAware
08:24AM 25.2680 121.6380 73° East 337 388 10,300 960 Climbing FlightAware
08:25AM 25.2860 121.7050 73° East 369 425 10,900 1,080 Climbing FlightAware
08:25AM 25.3040 121.7730 74° East 388 447 11,700 1,800 Climbing FlightAware
08:26AM 25.3210 121.8380 74° East 395 455 13,000 2,160 Climbing FlightAware
08:26AM 25.3390 121.9050 73° East 404 465 14,200 1,920 Climbing FlightAware
08:27AM 25.3580 121.9770 74° East 413 475 15,300 1,800 Climbing FlightAware
08:28AM 25.3750 122.0420 74° East 416 479 16,300 1,920 Climbing FlightAware
08:28AM 25.4010 122.1170 69° East 422 486 17,600 1,860 Climbing FlightAware
08:29AM 25.4400 122.1800 56° Northeast 429 494 18,600 1,620 Climbing FlightAware
08:29AM 25.4850 122.2470 53° Northeast 437 503 19,600 1,560 Climbing FlightAware
08:30AM 25.5250 122.3050 53° Northeast 445 512 20,400 1,500 Climbing FlightAware
08:31AM 25.5690 122.3700 53° Northeast 453 521 21,300 1,380 Climbing FlightAware
08:31AM 25.6080 122.4270 53° Northeast 460 529 22,000 1,500 Climbing FlightAware
08:32AM 25.6590 122.5030 53° Northeast 465 535 23,100 1,500 Climbing FlightAware
08:32AM 25.7010 122.5640 53° Northeast 469 540 23,800 1,380 Climbing FlightAware
08:33AM 25.7500 122.6370 53° Northeast 474 545 24,700 1,440 Climbing FlightAware
08:34AM 25.7980 122.7080 53° Northeast 479 551 25,600 1,320 Climbing FlightAware
08:34AM 25.8370 122.7650 53° Northeast 484 557 26,200 1,140 Climbing FlightAware
08:35AM 25.8890 122.8420 53° Northeast 493 567 26,900 1,080 Climbing FlightAware
08:35AM 25.9370 122.9140 53° Northeast 501 577 27,500 1,020 Climbing FlightAware
08:36AM 25.9880 122.9900 53° Northeast 508 585 28,100 1,020 Climbing FlightAware
08:36AM 26.0350 123.0600 53° Northeast 511 588 28,700 1,080 Climbing FlightAware
08:37AM 26.0860 123.1370 54° Northeast 516 594 29,400 1,140 Climbing FlightAware
08:38AM 26.1360 123.2120 53° Northeast 517 595 30,100 1,380 Climbing FlightAware
08:38AM 26.1810 123.2770 52° Northeast 511 588 31,000 1,380 Climbing FlightAware
08:39AM 26.2330 123.3570 54° Northeast 512 589 31,700 1,080 Climbing FlightAware
08:39AM 26.2810 123.4290 53° Northeast 512 589 32,300 960 Climbing FlightAware
08:40AM 26.3290 123.5000 53° Northeast 514 592 32,800 360 Climbing FlightAware
08:40AM 26.3760 123.5700 53° Northeast 514 592 32,800 120 Level FlightAware
08:41AM 26.4260 123.6480 54° Northeast 513 590 33,000 120 Climbing FlightAware
08:42AM 26.4710 123.7140 53° Northeast 513 590 33,000  Level FlightAware
08:42AM 26.5150 123.7790 53° Northeast 513 590 33,000  Level FlightAware
08:43AM 26.5590 123.8440 53° Northeast 513 590 33,000  Level FlightAware
08:43AM 26.6040 123.9100 53° Northeast 513 590 33,000  Level FlightAware
08:44AM 26.6480 123.9770 54° Northeast 513 590 33,000  Level FlightAware
08:45AM 26.6920 124.0420 53° Northeast 513 590 33,000  Level FlightAware
08:45AM 26.7380 124.1110 53° Northeast 513 590 33,000  Level FlightAware
08:46AM 26.7820 124.1760 53° Northeast 513 590 33,000  Level FlightAware
08:46AM 26.8270 124.2420 53° Northeast 513 590 33,000  Level FlightAware
08:47AM 26.8710 124.3070 53° Northeast 513 590 33,000  Level FlightAware
08:48AM 26.9140 124.3720 53° Northeast 513 590 33,000  Level FlightAware
08:48AM 26.9580 124.4370 53° Northeast 513 590 33,000  Level FlightAware
08:49AM 27.0020 124.5030 53° Northeast 513 590 33,000  Level FlightAware
08:49AM 27.0450 124.5680 53° Northeast 513 590 33,000  Level FlightAware
08:50AM 27.0870 124.6290 52° Northeast 513 590 33,000  Level FlightAware
08:50AM 27.2740 124.8300 44° Northeast 33,000  Level FlightAware
08:51AM 27.3430 124.9240 50° Northeast 559 643 33,000  Level FlightAware
08:54AM 27.5737 125.2398 50° Northeast  Level FlightAware Approximate
08:55AM 27.6741 125.3757 50° Northeast  Level FlightAware Approximate
08:56AM 27.7743 125.5117 50° Northeast  Level FlightAware Approximate
08:57AM 27.8745 125.6481 50° Northeast  Level FlightAware Approximate
08:58AM 27.9744 125.7847 50° Northeast  Level FlightAware Approximate
08:59AM 28.0742 125.9215 50° Northeast  Level FlightAware Approximate
09:00AM 28.1740 126.0586 50° Northeast  Level FlightAware Approximate
09:01AM 28.2735 126.1959 51° Northeast  Level FlightAware Approximate
09:02AM 28.3729 126.3335 51° Northeast  Level FlightAware Approximate
09:03AM 28.4722 126.4714 51° Northeast  Level FlightAware Approximate
09:04AM 28.5714 126.6095 51° Northeast  Level FlightAware Approximate
09:05AM 28.6704 126.7479 51° Northeast  Level FlightAware Approximate
09:06AM 28.7692 126.8865 51° Northeast  Level FlightAware Approximate
09:07AM 28.8680 127.0255 51° Northeast  Level FlightAware Approximate
09:08AM 28.9665 127.1646 51° Northeast  Level FlightAware Approximate
09:09AM 29.0650 127.3040 51° Northeast  Level FlightAware Approximate
09:09AM 28.9470 127.1370 51° Northeast 518 596 33,000  Level FlightAware
09:10AM 29.0030 127.2150 51° Northeast 516 594 33,000  Level FlightAware
09:10AM 29.0560 127.2910 51° Northeast 511 588 33,000  Level FlightAware
09:11AM 29.1420 127.4120 51° Northeast 511 588 33,000  Level FlightAware
09:12AM 29.1870 127.4770 52° Northeast 511 588 33,000  Level FlightAware
09:12AM 29.2470 127.5640 52° Northeast 509 586 33,000  Level FlightAware
09:13AM 29.2920 127.6280 51° Northeast 509 586 33,000  Level FlightAware
09:13AM 29.3380 127.6920 50° Northeast 509 586 33,000  Level FlightAware
09:14AM 29.3860 127.7600 51° Northeast 509 586 33,000  Level FlightAware
09:15AM 29.4310 127.8240 51° Northeast 509 586 33,000  Level FlightAware
09:15AM 29.4760 127.8890 51° Northeast 509 586 33,000  Level FlightAware
09:16AM 29.5220 127.9530 50° Northeast 509 586 33,000  Level FlightAware
09:16AM 29.5680 128.0190 51° Northeast 509 586 33,000  Level FlightAware
09:17AM 29.6140 128.0830 50° Northeast 509 586 33,000  Level FlightAware
09:17AM 29.6980 128.2140 52° Northeast 33,000  Level FlightAware
09:20AM 29.8470 128.4344 53° Northeast  Level FlightAware Approximate
09:21AM 29.9419 128.5783 53° Northeast  Level FlightAware Approximate
09:22AM 30.0372 128.7220 52° Northeast  Level FlightAware Approximate
09:23AM 30.1332 128.8651 52° Northeast  Level FlightAware Approximate
09:24AM 30.2290 129.0085 52° Northeast  Level FlightAware Approximate
09:25AM 30.3247 129.1522 52° Northeast  Level FlightAware Approximate
09:28AM 30.7496 129.6072 49° Northeast  Level Estimated
09:28AM 30.6290 129.5250 49° Northeast 512 589 33,000  Level FlightAware
09:28AM 30.6890 129.6060 49° Northeast 513 590 33,000  Level FlightAware
09:29AM 30.7590 129.7020 50° Northeast 513 590 33,000  Level FlightAware
09:30AM 30.8110 129.7720 49° Northeast 514 592 33,000  Level FlightAware
09:30AM 30.8630 129.8440 50° Northeast 513 590 33,000  Level FlightAware
09:31AM 30.9190 129.9190 49° Northeast 513 590 33,000  Level FlightAware
09:31AM 30.9720 129.9920 50° Northeast 512 589 33,000  Level FlightAware
09:32AM 31.0220 130.0610 50° Northeast 512 589 33,000  Level FlightAware
09:33AM 31.0840 130.1450 49° Northeast 512 589 33,000  Level FlightAware
09:33AM 31.1470 130.2320 50° Northeast 513 590 33,000  Level FlightAware
09:34AM 31.1960 130.2990 49° Northeast 513 590 33,000  Level FlightAware
09:34AM 31.2470 130.3700 50° Northeast 514 592 33,000  Level FlightAware
09:35AM 31.3050 130.4500 50° Northeast 514 592 33,000  Level FlightAware
09:36AM 31.3500 130.5120 50° Northeast 515 593 33,000  Level FlightAware
09:36AM 31.4130 130.6000 50° Northeast 515 593 33,000  Level FlightAware
09:37AM 31.4650 130.6720 50° Northeast 515 593 33,000  Level FlightAware
09:37AM 31.5240 130.7550 50° Northeast 513 590 33,000  Level FlightAware
09:38AM 31.5660 130.8130 50° Northeast 513 590 33,000  Level FlightAware
09:39AM 31.6220 130.8910 50° Northeast 513 590 33,000  Level FlightAware
09:39AM 31.6750 130.9660 50° Northeast 515 593 33,000  Level FlightAware
09:40AM 31.7280 131.0400 50° Northeast 514 592 33,000  Level FlightAware
09:40AM 31.7850 131.1200 50° Northeast 515 593 33,000  Level FlightAware
09:41AM 31.8360 131.1920 50° Northeast 512 589 33,000  Level FlightAware
09:41AM 31.8940 131.2730 50° Northeast 511 588 33,000  Level FlightAware
09:42AM 31.9500 131.3530 50° Northeast 513 590 33,000  Level FlightAware
09:43AM 31.9980 131.4220 51° Northeast 513 590 33,000  Level FlightAware
09:43AM 32.0540 131.5010 50° Northeast 514 592 33,000  Level FlightAware
09:44AM 32.0990 131.5650 50° Northeast 514 592 33,000  Level FlightAware
09:44AM 32.1520 131.6400 50° Northeast 514 592 33,000  Level FlightAware
09:45AM 32.2070 131.7190 51° Northeast 515 593 33,000  Level FlightAware
09:46AM 32.2590 131.7930 50° Northeast 516 594 33,000  Level FlightAware
09:46AM 32.3170 131.8770 51° Northeast 516 594 33,000  Level FlightAware
09:47AM 32.3690 131.9520 51° Northeast 517 595 33,000  Level FlightAware
09:47AM 32.4230 132.0300 51° Northeast 517 595 33,000  Level FlightAware
09:48AM 32.4800 132.1120 50° Northeast 518 596 33,000  Level FlightAware
09:48AM 32.5320 132.1880 51° Northeast 521 600 33,000  Level FlightAware
09:49AM 32.5830 132.2610 50° Northeast 521 600 33,000  Level FlightAware
09:50AM 32.6300 132.3300 51° Northeast 521 600 33,000  Level FlightAware
09:50AM 32.6940 132.4230 51° Northeast 522 601 33,000  Level FlightAware
09:51AM 32.7620 132.5220 51° Northeast 521 600 33,000  Level FlightAware
09:52AM 32.8210 132.6080 51° Northeast 519 597 33,000  Level FlightAware
09:52AM 32.8970 132.7200 51° Northeast 519 597 33,000  Level FlightAware
09:53AM 32.9420 132.7860 51° Northeast 519 597 33,000  Level FlightAware
09:54AM 32.9940 132.8620 51° Northeast 522 601 33,000  Level FlightAware
09:54AM 33.0520 132.9480 51° Northeast 522 601 33,000  Level FlightAware
09:55AM 33.1160 133.0440 51° Northeast 522 601 33,000  Level FlightAware
09:55AM 33.1680 133.1200 51° Northeast 522 601 33,000  Level FlightAware
09:56AM 33.2110 133.1850 52° Northeast 522 601 33,000  Level FlightAware
09:57AM 33.2740 133.2790 51° Northeast 523 602 33,000  Level FlightAware
09:57AM 33.3250 133.3540 51° Northeast 523 602 33,000  Level FlightAware
09:58AM 33.3800 133.4370 52° Northeast 523 602 33,000  Level FlightAware
09:58AM 33.4340 133.5180 51° Northeast 524 603 33,000  Level FlightAware
09:59AM 33.4870 133.5970 51° Northeast 524 603 33,000  Level FlightAware
09:59AM 33.5310 133.6650 52° Northeast 525 604 33,000  Level FlightAware
10:00AM 33.5940 133.7550 50° Northeast 520 598 33,000  Level FlightAware
10:01AM 33.6500 133.8320 49° Northeast 519 597 33,000  Level FlightAware
10:01AM 33.6970 133.8980 49° Northeast 520 598 33,000  Level FlightAware
10:02AM 33.7610 133.9870 49° Northeast 526 605 33,000  Level FlightAware
10:02AM 33.8160 134.0640 49° Northeast 526 605 33,000  Level FlightAware
10:03AM 33.8710 134.1420 50° Northeast 527 606 33,000  Level FlightAware
10:04AM 33.9260 134.2210 50° Northeast 528 608 33,000  Level FlightAware
10:04AM 33.9810 134.3000 50° Northeast 528 608 33,000  Level FlightAware
10:05AM 34.0360 134.3770 49° Northeast 528 608 33,000  Level FlightAware
10:05AM 34.0880 134.4640 54° Northeast 527 606 33,000  Level FlightAware
10:06AM 34.1390 134.5620 58° Northeast 534 615 33,000  Level FlightAware
10:07AM 34.1840 134.6520 59° Northeast 535 616 33,000  Level FlightAware
10:07AM 34.2280 134.7410 59° Northeast 536 617 33,000  Level FlightAware
10:08AM 34.2730 134.8330 59° Northeast 536 617 33,000  Level FlightAware
10:08AM 34.3210 134.9310 59° Northeast 537 618 33,000  Level FlightAware
10:09AM 34.3640 135.0220 60° Northeast 535 616 33,000  Level FlightAware
10:10AM 34.4010 135.0990 60° Northeast 535 616 33,000  Level FlightAware
10:10AM 34.4510 135.2020 59° Northeast 534 615 33,000  Level FlightAware
10:11AM 34.4730 135.2490 60° Northeast 534 615 33,000  Level FlightAware
10:11AM 34.5430 135.3950 60° Northeast 535 616 33,000  Level FlightAware
10:12AM 34.5880 135.4890 60° Northeast 535 616 33,000  Level FlightAware
10:13AM 34.6300 135.5780 60° Northeast 536 617 33,000  Level FlightAware
10:13AM 34.6710 135.6640 60° Northeast 537 618 33,000  Level FlightAware
10:14AM 34.7140 135.7550 60° Northeast 535 616 33,000  Level FlightAware
10:14AM 34.7600 135.8510 60° Northeast 535 616 33,000  Level FlightAware
10:15AM 34.7950 135.9260 60° Northeast 535 616 33,000  Level FlightAware
10:15AM 34.8330 136.0080 61° Northeast 536 617 33,000  Level FlightAware
10:16AM 34.8820 136.1110 60° Northeast 536 617 33,000  Level FlightAware
10:17AM 34.9260 136.2050 60° Northeast 536 617 33,000  Level FlightAware
10:17AM 34.9690 136.2970 60° Northeast 536 617 33,000  Level FlightAware
10:18AM 35.0060 136.3790 61° Northeast 537 618 33,000  Level FlightAware
10:18AM 35.0540 136.4820 60° Northeast 538 619 33,000  Level FlightAware
10:19AM 35.0880 136.5550 60° Northeast 539 620 33,000  Level FlightAware
10:20AM 35.1410 136.6700 61° Northeast 533 613 33,000  Level FlightAware
10:20AM 35.1870 136.7700 61° Northeast 538 619 33,000  Level FlightAware
10:21AM 35.2220 136.8470 61° Northeast 538 619 33,000  Level FlightAware
10:21AM 35.2800 136.9750 61° Northeast 536 617 33,000  Level FlightAware
10:22AM 35.3240 137.0690 60° Northeast 540 621 33,000  Level FlightAware
10:23AM 35.3650 137.1620 62° Northeast 538 619 33,000  Level FlightAware
10:23AM 35.4210 137.2850 61° Northeast 542 624 33,000  Level FlightAware
10:24AM 35.4570 137.3650 61° Northeast 542 624 33,000  Level FlightAware
10:24AM 35.5000 137.4590 61° Northeast 542 624 33,000  Level FlightAware
10:25AM 35.5480 137.5670 61° Northeast 542 624 33,000  Level FlightAware
10:26AM 35.5840 137.6480 61° Northeast 542 624 33,000  Level FlightAware
10:26AM 35.6320 137.7550 61° Northeast 540 621 33,000  Level FlightAware
10:27AM 35.6680 137.8350 61° Northeast 539 620 33,000  Level FlightAware
10:27AM 35.7160 137.9440 62° Northeast 540 621 33,000  Level FlightAware
10:28AM 35.7520 138.0240 61° Northeast 540 621 33,000  Level FlightAware
10:29AM 35.7990 138.1310 62° Northeast 540 621 33,000  Level FlightAware
10:29AM 35.8410 138.2260 61° Northeast 540 621 33,000  Level FlightAware
10:30AM 35.8760 138.3070 62° Northeast 541 623 33,000  Level FlightAware
10:30AM 35.9240 138.4160 61° Northeast 541 623 33,000  Level FlightAware
10:31AM 35.9650 138.5100 62° Northeast 542 624 33,000  Level FlightAware
10:31AM 36.0010 138.5940 62° Northeast 539 620 33,000  Level FlightAware
10:32AM 36.0440 138.7000 63° Northeast 544 626 33,000  Level FlightAware
10:33AM 36.0770 138.7840 64° Northeast 542 624 33,000  Level FlightAware
10:33AM 36.1150 138.8860 65° Northeast 546 628 33,000  Level FlightAware
10:34AM 36.1530 138.9880 65° Northeast 546 628 33,000  Level FlightAware
10:34AM 36.1890 139.0850 65° Northeast 547 629 33,000  Level FlightAware
10:35AM 36.2350 139.2110 66° East 547 629 33,000  Level FlightAware
10:36AM 36.2690 139.3030 65° Northeast 548 631 33,000  Level FlightAware
10:36AM 36.3060 139.4040 66° East 548 631 33,000  Level FlightAware
10:37AM 36.3470 139.5170 66° East 548 631 33,000  Level FlightAware
10:37AM 36.3830 139.6150 65° Northeast 549 632 33,000  Level FlightAware
10:38AM 36.4200 139.7180 66° East 549 632 33,000  Level FlightAware
10:39AM 36.4560 139.8150 65° Northeast 549 632 33,000  Level FlightAware
10:39AM 36.4900 139.9090 66° East 548 631 33,000  Level FlightAware
10:40AM 36.5260 140.0110 66° East 549 632 33,000  Level FlightAware
10:40AM 36.5630 140.1130 66° East 549 632 33,000  Level FlightAware
10:41AM 36.6030 140.2240 66° East 548 631 33,000  Level FlightAware
10:42AM 36.6370 140.3210 66° East 550 633 33,000  Level FlightAware
10:42AM 36.6730 140.4230 66° East 552 635 33,000  Level FlightAware
10:43AM 36.7070 140.5190 66° East 553 636 33,000  Level FlightAware
10:43AM 36.7420 140.6180 66° East 554 638 33,000  Level FlightAware
10:44AM 36.7820 140.7300 66° East 555 639 33,000  Level FlightAware
10:45AM 36.8190 140.8350 66° East 557 641 33,000  Level FlightAware
10:45AM 36.8540 140.9360 67° East 558 642 33,000  Level FlightAware
10:46AM 36.8910 141.0430 67° East 559 643 33,000  Level FlightAware
10:46AM 36.9240 141.1370 66° East 560 644 33,000  Level FlightAware
10:47AM 36.9660 141.2610 67° East 564 649 33,000  Level FlightAware
10:47AM 36.9920 141.3360 67° East 565 650 33,000  Level FlightAware
10:48AM 37.0400 141.4760 67° East 565 650 33,000  Level FlightAware
10:49AM 37.0740 141.5750 67° East 563 648 33,000  Level FlightAware
10:49AM 37.1090 141.6770 67° East 564 649 33,000  Level FlightAware
10:50AM 37.1460 141.7860 67° East 561 646 33,000  Level FlightAware
10:50AM 37.1820 141.8920 67° East 559 643 33,000  Level FlightAware
10:51AM 37.2180 141.9980 67° East 555 639 33,000  Level FlightAware
10:52AM 37.2520 142.1010 67° East 553 636 33,000  Level FlightAware
10:52AM 37.2880 142.2070 67° East 554 638 33,000  Level FlightAware
10:53AM 37.3220 142.3110 68° East 553 636 33,000  Level FlightAware
10:53AM 37.3610 142.4280 67° East 551 634 33,000  Level FlightAware
10:54AM 37.3950 142.5310 67° East 550 633 33,000  Level FlightAware
10:55AM 37.4290 142.6340 67° East 551 634 33,000  Level FlightAware
10:55AM 37.4680 142.7530 68° East 551 634 33,000  Level FlightAware
10:56AM 37.4980 142.8420 67° East 552 635 33,000  Level FlightAware
10:57AM 37.5410 142.9750 68° East 552 635 33,000  Level FlightAware
10:57AM 37.5780 143.0890 68° East 553 636 33,000  Level FlightAware
10:58AM 37.6120 143.1950 68° East 553 636 33,000  Level FlightAware
10:58AM 37.6420 143.2860 67° East 554 638 33,000 120 Level FlightAware
10:59AM 37.6810 143.4090 68° East 553 636 33,200 300 Climbing FlightAware
11:00AM 37.7150 143.5140 68° East 551 634 33,400 420 Climbing FlightAware
11:00AM 37.7470 143.6150 68° East 554 638 33,700 480 Climbing FlightAware
11:01AM 37.7820 143.7250 68° East 558 642 34,000 240 Climbing FlightAware
11:01AM 37.8170 143.8380 69° East 564 649 34,000  Level FlightAware
11:02AM 37.8490 143.9370 68° East 564 649 34,000  Level FlightAware
11:03AM 37.8800 144.0330 68° East 564 649 34,000  Level FlightAware
11:03AM 37.9090 144.1240 68° East 564 649 34,000  Level FlightAware
11:04AM 37.9390 144.2180 68° East 564 649 34,000  Level FlightAware
11:04AM 37.9690 144.3120 68° East 564 649 34,000  Level FlightAware
11:05AM 37.9980 144.4030 68° East 564 649 34,000  Level FlightAware
11:05AM 38.0260 144.4920 68° East 564 649 34,000  Level FlightAware
11:06AM 38.1000 144.7480 70° East 560 644 34,000  Level FlightAware
11:07AM 38.1400 144.8790 69° East 560 644 34,000  Level FlightAware
11:08AM 38.1820 145.0170 69° East 560 644 34,000  Level FlightAware
11:08AM 38.2120 145.1150 69° East 563 648 34,000  Level FlightAware
11:09AM 38.2410 145.2130 69° East 563 648 34,000  Level FlightAware
11:10AM 38.2730 145.3180 69° East 563 648 34,000  Level FlightAware
11:10AM 38.3010 145.4130 69° East 563 648 34,000  Level FlightAware
11:11AM 38.3810 145.5760 58° Northeast 557 641 34,000  Level FlightAware
11:11AM 38.4300 145.6350 43° Northeast 553 636 34,000  Level FlightAware
11:12AM 38.4940 145.7100 43° Northeast 553 636 34,000  Level FlightAware
11:13AM 38.5540 145.7820 43° Northeast 553 636 34,000  Level FlightAware
11:13AM 38.6120 145.8510 43° Northeast 553 636 34,000  Level FlightAware
11:14AM 38.6690 145.9190 43° Northeast 553 636 34,000  Level FlightAware
11:14AM 38.7280 145.9890 43° Northeast 553 636 34,000  Level FlightAware
11:15AM 38.7850 146.0580 43° Northeast 553 636 34,000  Level FlightAware
11:16AM 38.8420 146.1260 43° Northeast 553 636 34,000  Level FlightAware
11:16AM 38.9000 146.1950 43° Northeast 553 636 34,000  Level FlightAware
11:17AM 38.9570 146.2640 43° Northeast 553 636 34,000  Level FlightAware
11:18AM 39.0160 146.3340 43° Northeast 553 636 34,000  Level FlightAware
11:18AM 39.0700 146.3990 43° Northeast 553 636 34,000  Level FlightAware
11:19AM 39.1290 146.4700 43° Northeast 553 636 34,000  Level FlightAware
11:19AM 39.1870 146.5410 43° Northeast 553 636 34,000  Level FlightAware
11:20AM 39.2460 146.6120 43° Northeast 553 636 34,000  Level FlightAware
11:21AM 39.3030 146.6810 43° Northeast 553 636 34,000  Level FlightAware
11:21AM 39.3590 146.7480 43° Northeast 553 636 34,000  Level FlightAware
11:24AM 39.6279 147.0891 44° Northeast  Level FlightAware Approximate
11:25AM 39.7397 147.2321 44° Northeast  Level FlightAware Approximate
11:26AM 39.8530 147.3731 43° Northeast  Level FlightAware Approximate
11:27AM 39.9668 147.5139 43° Northeast  Level FlightAware Approximate
11:28AM 40.0803 147.6551 44° Northeast  Level FlightAware Approximate
11:29AM 40.1937 147.7968 44° Northeast  Level FlightAware Approximate
11:30AM 40.3069 147.9390 44° Northeast  Level FlightAware Approximate
11:31AM 40.4199 148.0816 44° Northeast  Level FlightAware Approximate
11:32AM 40.5328 148.2247 44° Northeast  Level FlightAware Approximate
11:33AM 40.6454 148.3684 44° Northeast  Level FlightAware Approximate
11:34AM 40.7579 148.5125 44° Northeast  Level FlightAware Approximate
11:35AM 40.8703 148.6570 44° Northeast  Level FlightAware Approximate
11:36AM 40.9824 148.8021 44° Northeast  Level FlightAware Approximate
11:37AM 41.0942 148.9478 45° Northeast  Level FlightAware Approximate
11:38AM 41.2051 149.0951 45° Northeast  Level FlightAware Approximate
11:39AM 41.3157 149.2429 45° Northeast  Level FlightAware Approximate
11:40AM 41.4262 149.3912 45° Northeast  Level FlightAware Approximate
11:41AM 41.5364 149.5400 45° Northeast  Level FlightAware Approximate
11:42AM 41.6465 149.6894 45° Northeast  Level FlightAware Approximate
11:43AM 41.7564 149.8392 45° Northeast  Level FlightAware Approximate
11:44AM 41.8661 149.9896 46° Northeast  Level FlightAware Approximate
11:45AM 41.9755 150.1404 46° Northeast  Level FlightAware Approximate
11:46AM 42.0848 150.2918 46° Northeast  Level FlightAware Approximate
11:47AM 42.1939 150.4437 46° Northeast  Level FlightAware Approximate
11:48AM 42.3028 150.5962 46° Northeast  Level FlightAware Approximate
11:49AM 42.4115 150.7491 46° Northeast  Level FlightAware Approximate
11:50AM 42.5200 150.9026 46° Northeast  Level FlightAware Approximate
11:51AM 42.6282 151.0566 46° Northeast  Level FlightAware Approximate
11:52AM 42.7363 151.2112 46° Northeast  Level FlightAware Approximate
11:53AM 42.8442 151.3663 46° Northeast  Level FlightAware Approximate
11:54AM 42.9518 151.5219 47° Northeast  Level FlightAware Approximate
11:55AM 43.0592 151.6781 47° Northeast  Level FlightAware Approximate
11:56AM 43.1665 151.8349 47° Northeast  Level FlightAware Approximate
11:57AM 43.2735 151.9922 47° Northeast  Level FlightAware Approximate
11:58AM 43.3803 152.1500 47° Northeast  Level FlightAware Approximate
11:59AM 43.4868 152.3084 47° Northeast  Level FlightAware Approximate
12:00PM 43.5932 152.4673 47° Northeast  Level FlightAware Approximate
12:01PM 43.6993 152.6269 47° Northeast  Level FlightAware Approximate
12:02PM 43.8052 152.7870 47° Northeast  Level FlightAware Approximate
12:03PM 43.9109 152.9476 48° Northeast  Level FlightAware Approximate
12:04PM 44.0164 153.1088 48° Northeast  Level FlightAware Approximate
12:05PM 44.1216 153.2706 48° Northeast  Level FlightAware Approximate
12:06PM 44.2266 153.4330 48° Northeast  Level FlightAware Approximate
12:07PM 44.3314 153.5959 48° Northeast  Level FlightAware Approximate
12:08PM 44.4359 153.7595 48° Northeast  Level FlightAware Approximate
12:09PM 44.5402 153.9236 48° Northeast  Level FlightAware Approximate
12:10PM 44.6443 154.0883 48° Northeast  Level FlightAware Approximate
12:11PM 44.7482 154.2536 48° Northeast  Level FlightAware Approximate
12:12PM 44.8517 154.4195 49° Northeast  Level FlightAware Approximate
12:13PM 44.9542 154.5871 49° Northeast  Level FlightAware Approximate
12:14PM 45.0564 154.7553 49° Northeast  Level FlightAware Approximate
12:15PM 45.1584 154.9241 49° Northeast  Level FlightAware Approximate
12:16PM 45.2601 155.0934 49° Northeast  Level FlightAware Approximate
12:17PM 45.3616 155.2634 50° Northeast  Level FlightAware Approximate
12:18PM 45.4628 155.4340 50° Northeast  Level FlightAware Approximate
12:19PM 45.5638 155.6052 50° Northeast  Level FlightAware Approximate
12:20PM 45.6645 155.7771 50° Northeast  Level FlightAware Approximate
12:21PM 45.7650 155.9495 50° Northeast  Level FlightAware Approximate
12:22PM 45.8652 156.1226 50° Northeast  Level FlightAware Approximate
12:23PM 45.9651 156.2963 50° Northeast  Level FlightAware Approximate
12:24PM 46.0647 156.4706 50° Northeast  Level FlightAware Approximate
12:25PM 46.1641 156.6455 51° Northeast  Level FlightAware Approximate
12:26PM 46.2633 156.8211 51° Northeast  Level FlightAware Approximate
12:27PM 46.3621 156.9973 51° Northeast  Level FlightAware Approximate
12:28PM 46.4607 157.1742 51° Northeast  Level FlightAware Approximate
12:29PM 46.5590 157.3517 51° Northeast  Level FlightAware Approximate
12:30PM 46.6571 157.5298 51° Northeast  Level FlightAware Approximate
12:31PM 46.7548 157.7086 51° Northeast  Level FlightAware Approximate
12:32PM 46.8523 157.8880 51° Northeast  Level FlightAware Approximate
12:33PM 46.9495 158.0681 52° Northeast  Level FlightAware Approximate
12:34PM 47.0464 158.2489 52° Northeast  Level FlightAware Approximate
12:35PM 47.1431 158.4303 52° Northeast  Level FlightAware Approximate
12:36PM 47.2394 158.6123 52° Northeast  Level FlightAware Approximate
12:37PM 47.3355 158.7950 52° Northeast  Level FlightAware Approximate
12:38PM 47.4313 158.9784 52° Northeast  Level FlightAware Approximate
12:39PM 47.5267 159.1624 52° Northeast  Level FlightAware Approximate
12:40PM 47.6219 159.3472 53° Northeast  Level FlightAware Approximate
12:41PM 47.7168 159.5326 53° Northeast  Level FlightAware Approximate
12:42PM 47.8114 159.7186 53° Northeast  Level FlightAware Approximate
12:43PM 47.9056 159.9054 53° Northeast  Level FlightAware Approximate
12:44PM 47.9996 160.0928 53° Northeast  Level FlightAware Approximate
12:45PM 48.0933 160.2809 53° Northeast  Level FlightAware Approximate
12:45PM 48.2833 160.6833 54° Northeast 598 688 34,000  Level Anchorage Center
12:46PM 48.1866 160.4697 53° Northeast  Level FlightAware Approximate
12:47PM 48.2797 160.6592 54° Northeast  Level FlightAware Approximate
12:48PM 48.3715 160.8504 54° Northeast  Level FlightAware Approximate
12:49PM 48.4630 161.0423 54° Northeast  Level FlightAware Approximate
12:50PM 48.5541 161.2348 54° Northeast  Level FlightAware Approximate
12:51PM 48.9681 162.1417 55° Northeast 598 688 34,000  Level FlightAware Transoceanic
12:52PM 49.0644 162.3533 55° Northeast 598 688 34,000  Level FlightAware Transoceanic
12:53PM 49.1603 162.5657 55° Northeast 598 688 34,000  Level FlightAware Transoceanic
12:54PM 49.2559 162.7789 56° Northeast 598 688 34,000  Level FlightAware Transoceanic
12:55PM 49.3510 162.9929 56° Northeast 598 688 34,000  Level FlightAware Transoceanic
12:55PM 49.3500 163.0000 56° Northeast 595 685 34,000  Level Anchorage Center
12:56PM 49.4457 163.2078 56° Northeast 598 688 34,000  Level FlightAware Transoceanic
12:57PM 49.5401 163.4235 56° Northeast 598 688 34,000  Level FlightAware Transoceanic
12:58PM 49.6340 163.6401 56° Northeast 598 688 34,000  Level FlightAware Transoceanic
12:59PM 49.7275 163.8574 56° Northeast 598 688 34,000  Level FlightAware Transoceanic
01:00PM 49.8206 164.0757 57° Northeast 598 688 34,000  Level FlightAware Transoceanic
01:01PM 49.9134 164.2947 57° Northeast 598 688 34,000  Level FlightAware Transoceanic
01:02PM 49.9125 164.3005 57° Northeast 595 685 34,000  Level FlightAware Transoceanic
01:03PM 50.0048 164.5202 57° Northeast 595 685 34,000  Level FlightAware Transoceanic
01:04PM 50.0967 164.7408 57° Northeast 595 685 34,000  Level FlightAware Transoceanic
01:05PM 50.1882 164.9621 57° Northeast 595 685 34,000  Level FlightAware Transoceanic
01:06PM 50.2792 165.1843 57° Northeast 595 685 34,000  Level FlightAware Transoceanic
01:07PM 50.3699 165.4074 58° Northeast 595 685 34,000  Level FlightAware Transoceanic
01:08PM 50.4601 165.6313 58° Northeast 595 685 34,000 960 Level FlightAware Transoceanic
01:08PM 50.4000 165.5167 58° Northeast 601 692 35,000  Climbing Anchorage Center
01:09PM 50.5499 165.8561 58° Northeast 595 685 34,000 -540 Descending FlightAware Transoceanic
01:10PM 50.6392 166.0818 58° Northeast 595 685 34,000  Level FlightAware Transoceanic
01:11PM 50.7281 166.3082 58° Northeast 595 685 34,000  Level FlightAware Transoceanic
01:12PM 50.8166 166.5356 58° Northeast 595 685 34,000  Level FlightAware Transoceanic
01:13PM 50.9046 166.7638 59° Northeast 595 685 34,000 480 Level FlightAware Transoceanic
01:14PM 50.9502 166.9088 59° Northeast 601 692 35,000 480 Climbing FlightAware Transoceanic
01:15PM 51.0403 167.1440 59° Northeast 601 692 35,000  Level FlightAware Transoceanic
01:16PM 51.1299 167.3801 59° Northeast 601 692 35,000  Level FlightAware Transoceanic
01:17PM 51.2190 167.6171 59° Northeast 601 692 35,000  Level FlightAware Transoceanic
01:18PM 51.3076 167.8551 59° Northeast 601 692 35,000  Level FlightAware Transoceanic
01:19PM 51.3958 168.0939 60° Northeast 601 692 35,000  Level FlightAware Transoceanic
01:19PM 51.4167 168.1333 60° Northeast 610 702 35,000  Level Anchorage Center
01:20PM 51.4835 168.3337 60° Northeast 601 692 35,000  Level FlightAware Transoceanic
01:20PM 51.4833 168.3333 62° Northeast 610 702 35,000  Level Anchorage Center
01:21PM 51.5706 168.5744 60° Northeast 601 692 35,000  Level FlightAware Transoceanic
01:21PM 51.5667 168.6000 63° Northeast 580 667 35,000  Level Anchorage Center
01:22PM 51.6573 168.8160 60° Northeast 601 692 35,000  Level FlightAware Transoceanic
01:23PM 51.7435 169.0586 60° Northeast 601 692 35,000  Level FlightAware Transoceanic
01:23PM 51.7333 169.0500 59° Northeast 610 702 35,000  Level Anchorage Center
01:24PM 51.8292 169.3021 60° Northeast 601 692 35,000  Level FlightAware Transoceanic
01:24PM 51.8333 169.3167 59° Northeast 630 725 35,000  Level Anchorage Center
01:25PM 51.9000 169.5167 62° Northeast 610 702 35,000  Level Anchorage Center
01:26PM 52.0000 169.7833 59° Northeast 620 713 35,000  Level Anchorage Center
01:27PM 52.0667 170.0000 63° Northeast 620 713 35,000  Level Anchorage Center
01:28PM 52.1500 170.2667 63° Northeast 620 713 35,000  Level Anchorage Center
01:29PM 52.2333 170.4833 58° Northeast 620 713 35,000  Level Anchorage Center
01:30PM 52.3167 170.7500 63° Northeast 620 713 35,000  Level Anchorage Center
01:31PM 52.3833 170.9667 63° Northeast 610 702 35,000  Level Anchorage Center
01:32PM 52.4500 171.2500 69° East 620 713 35,000  Level Anchorage Center
01:33PM 52.5333 171.5333 64° Northeast 620 713 35,000  Level Anchorage Center
01:34PM 52.6000 171.7500 63° Northeast 610 702 35,000  Level Anchorage Center
01:35PM 52.6833 172.0333 64° Northeast 620 713 35,000  Level Anchorage Center
01:36PM 52.7333 172.2500 69° East 610 702 35,000  Level Anchorage Center
01:37PM 52.8167 172.5333 64° Northeast 610 702 35,000  Level Anchorage Center
01:38PM 52.8833 172.7667 65° Northeast 610 702 35,000  Level Anchorage Center
01:39PM 52.9667 173.0500 64° Northeast 620 713 35,000  Level Anchorage Center
01:40PM 53.0333 173.2833 65° Northeast 620 713 35,000  Level Anchorage Center
01:41PM 53.1000 173.5667 69° East 630 725 35,000  Level Anchorage Center
01:42PM 53.1667 173.8000 64° Northeast 630 725 35,000  Level Anchorage Center
01:43PM 53.2333 174.1000 70° East 620 713 35,000  Level Anchorage Center
01:44PM 53.3000 174.3333 64° Northeast 630 725 35,000  Level Anchorage Center
01:45PM 53.3833 174.6333 65° Northeast 630 725 35,000  Level Anchorage Center
01:46PM 53.4333 174.8667 70° East 630 725 35,000  Level Anchorage Center
01:47PM 53.5000 175.1667 69° East 630 725 35,000  Level Anchorage Center
01:48PM 53.5833 175.4500 64° Northeast 630 725 35,000  Level Anchorage Center
01:49PM 53.6333 175.7000 71° East 630 725 35,000  Level Anchorage Center
01:50PM 53.7000 175.9833 68° East 620 713 35,000  Level Anchorage Center
01:51PM 53.7667 176.2333 66° East 620 713 35,000  Level Anchorage Center
01:52PM 53.8333 176.5333 69° East 630 725 35,000  Level Anchorage Center
01:53PM 53.8833 176.7667 70° East 620 713 35,000  Level Anchorage Center
01:54PM 53.9500 177.0667 69° East 620 713 35,000  Level Anchorage Center
01:55PM 54.0000 177.3167 71° East 630 725 35,000  Level Anchorage Center
01:56PM 54.0667 177.6167 69° East 630 725 35,000  Level Anchorage Center
01:57PM 54.1333 177.9333 70° East 620 713 35,000  Level Anchorage Center
01:58PM 54.1833 178.1667 70° East 630 725 35,000  Level Anchorage Center
01:59PM 54.2500 178.4833 70° East 610 702 35,000  Level Anchorage Center
02:00PM 54.2833 178.7333 77° East 630 725 35,000  Level Anchorage Center
02:01PM 54.3000 179.0000 84° East 630 725 35,000  Level Anchorage Center
02:05PM 54.3619 179.3710 78° East  Level FlightAware Approximate
02:11PM 54.6500 -178.1167 80° East 641 738 35,000  Level Anchorage Center
02:12PM 54.5677 -178.7739 78° East  Level FlightAware Approximate
02:13PM 54.5948 -178.5074 80° East  Level FlightAware Approximate
02:14PM 54.6213 -178.2405 80° East  Level FlightAware Approximate
02:15PM 54.6482 -177.9736 80° East  Level FlightAware Approximate
02:15PM 54.7833 -176.6833 81° East 643 740 35,000  Level Anchorage Center
02:16PM 54.6755 -177.7067 80° East  Level FlightAware Approximate
02:17PM 54.8193 -176.3269 81° East 641 738 35,000  Level FlightAware Transoceanic
02:18PM 54.8449 -176.0272 82° East 641 738 35,000  Level FlightAware Transoceanic
02:18PM 54.8500 -175.9167 83° East 640 736 35,000  Level Anchorage Center
02:19PM 54.8698 -175.7271 82° East 641 738 35,000  Level FlightAware Transoceanic
02:19PM 54.8667 -175.6000 85° East 630 725 35,000  Level Anchorage Center
02:20PM 54.8940 -175.4267 82° East 641 738 35,000  Level FlightAware Transoceanic
02:20PM 54.9000 -175.3167 78° East 630 725 35,000  Level Anchorage Center
02:21PM 54.9174 -175.1259 82° East 641 738 35,000  Level FlightAware Transoceanic
02:21PM 54.9167 -175.0000 85° East 630 725 35,000  Level Anchorage Center
02:22PM 54.9417 -174.7628 83° East 643 740 35,000  Level FlightAware Transoceanic
02:22PM 54.9500 -174.7000 79° East 630 725 35,000  Level Anchorage Center
02:23PM 54.9652 -174.4413 83° East 643 740 35,000  Level FlightAware Transoceanic
02:23PM 54.9667 -174.3833 85° East 630 725 35,000  Level Anchorage Center
02:24PM 54.9833 -174.0833 84° East 630 725 35,000  Level Anchorage Center
02:25PM 55.0000 -173.7833 84° East 630 725 35,000  Level Anchorage Center
02:26PM 55.0333 -173.4667 79° East 630 725 35,000  Level Anchorage Center
02:27PM 55.0500 -173.1667 84° East 640 736 35,000  Level Anchorage Center
02:28PM 55.0667 -172.8500 85° East 630 725 35,000  Level Anchorage Center
02:29PM 55.0833 -172.5500 84° East 630 725 35,000  Level Anchorage Center
02:30PM 55.1000 -172.2500 84° East 620 713 35,000  Level Anchorage Center
02:31PM 55.1167 -171.9333 85° East 620 713 35,000  Level Anchorage Center
02:32PM 55.1333 -171.6333 84° East 630 725 35,000  Level Anchorage Center
02:33PM 55.1500 -171.3333 84° East 620 713 35,000  Level Anchorage Center
02:34PM 55.1500 -171.0167 90° East 640 736 35,000  Level Anchorage Center
02:35PM 55.1667 -170.7167 84° East 620 713 35,000  Level Anchorage Center
02:36PM 55.1833 -170.4000 85° East 640 736 35,000  Level Anchorage Center
02:37PM 55.2000 -170.1000 84° East 620 713 35,000  Level Anchorage Center
02:38PM 55.2000 -169.7833 90° East 630 725 35,000 180 Level Anchorage Center
02:39PM 55.2167 -169.4833 84° East 630 725 35,400 480 Climbing Anchorage Center
02:40PM 55.2167 -169.1667 90° East 620 713 36,000 300 Climbing Anchorage Center
02:41PM 55.2333 -168.8667 84° East 610 702 36,000  Level Anchorage Center
02:42PM 55.2500 -168.5667 84° East 620 713 36,000  Level Anchorage Center
02:43PM 55.2500 -168.2667 90° East 610 702 36,000  Level Anchorage Center
02:44PM 55.2500 -167.9667 90° East 610 702 36,000  Level Anchorage Center
02:45PM 55.2667 -167.6500 85° East 630 725 36,000  Level Anchorage Center
02:47PM 55.2833 -167.1500 86° East 630 725 36,000  Level Anchorage Center
02:48PM 55.2833 -166.8833 90° East 610 702 36,000  Level Anchorage Center
02:49PM 55.2833 -166.5833 90° East 620 713 36,000  Level Anchorage Center
02:50PM 55.2833 -166.2167 90° East 620 713 36,000  Level Anchorage Center
02:51PM 55.2833 -165.9167 90° East 620 713 36,000  Level Anchorage Center
02:52PM 55.2833 -165.6000 90° East 610 702 36,000  Level Anchorage Center
02:53PM 55.2833 -165.3000 90° East 610 702 36,000  Level Anchorage Center
02:54PM 55.2833 -165.0000 90° East 620 713 36,000  Level Anchorage Center
02:55PM 55.2833 -164.7000 90° East 620 713 36,000  Level Anchorage Center
02:56PM 55.2833 -164.3833 90° East 620 713 36,000  Level Anchorage Center
02:57PM 55.2833 -164.0833 90° East 630 725 36,000  Level Anchorage Center
02:58PM 55.2833 -163.7833 90° East 620 713 36,000  Level Anchorage Center
02:59PM 55.2667 -163.4667 95° East 620 713 36,000  Level Anchorage Center
03:00PM 55.2667 -163.1667 90° East 620 713 36,000  Level Anchorage Center
03:01PM 55.2667 -162.8667 90° East 630 725 36,000  Level Anchorage Center
03:02PM 55.2167 -162.5667 106° East 630 725 36,000  Level Anchorage Center
03:03PM 55.1667 -162.2667 106° East 660 760 36,000  Level Anchorage Center
03:04PM 55.1000 -161.9667 111° Southeast 650 748 36,000  Level Anchorage Center
03:05PM 55.0500 -161.6667 106° East 640 736 36,000  Level Anchorage Center
03:06PM 55.0000 -161.3833 107° East 630 725 36,000  Level Anchorage Center
03:07PM 54.9333 -161.0833 111° Southeast 640 736 36,000  Level Anchorage Center
03:08PM 54.8667 -160.7833 111° Southeast 640 736 36,000  Level Anchorage Center
03:09PM 54.8167 -160.5000 107° East 640 736 36,000  Level Anchorage Center
03:10PM 54.7500 -160.2000 111° Southeast 640 736 36,000  Level Anchorage Center
03:11PM 54.6833 -159.9167 112° Southeast 650 748 36,000  Level Anchorage Center
03:12PM 54.6167 -159.6333 112° Southeast 630 725 36,000  Level Anchorage Center
03:13PM 54.5500 -159.2833 108° East 630 725 36,000  Level Anchorage Center
03:14PM 54.4833 -159.0000 112° Southeast 630 725 36,000  Level Anchorage Center
03:16PM 54.3855 -158.5578 111° Southeast  Level FlightAware Approximate
03:23PM 53.9944 -156.8922 112° Southeast  Level FlightAware Approximate
03:24PM 53.9357 -156.6573 113° Southeast  Level FlightAware Approximate
03:25PM 53.8766 -156.4229 113° Southeast  Level FlightAware Approximate
03:26PM 53.8170 -156.1891 113° Southeast  Level FlightAware Approximate
03:27PM 53.7569 -155.9559 113° Southeast  Level FlightAware Approximate
03:28PM 53.6964 -155.7235 114° Southeast  Level FlightAware Approximate
03:29PM 53.6355 -155.4917 114° Southeast  Level FlightAware Approximate
03:30PM 53.5741 -155.2605 114° Southeast  Level FlightAware Approximate
03:31PM 53.5122 -155.0301 114° Southeast  Level FlightAware Approximate
03:32PM 53.4500 -154.8003 114° Southeast  Level FlightAware Approximate
03:33PM 53.3872 -154.5712 115° Southeast  Level FlightAware Approximate
03:34PM 53.3241 -154.3428 115° Southeast  Level FlightAware Approximate
03:35PM 53.2605 -154.1151 115° Southeast  Level FlightAware Approximate
03:36PM 53.1964 -153.8880 115° Southeast  Level FlightAware Approximate
03:37PM 53.1320 -153.6616 115° Southeast  Level FlightAware Approximate
03:38PM 53.0671 -153.4359 115° Southeast  Level FlightAware Approximate
03:39PM 53.0018 -153.2108 116° Southeast  Level FlightAware Approximate
03:40PM 52.9360 -152.9865 116° Southeast  Level FlightAware Approximate
03:41PM 52.8699 -152.7628 116° Southeast  Level FlightAware Approximate
03:42PM 52.8033 -152.5399 116° Southeast  Level FlightAware Approximate
03:43PM 52.7363 -152.3176 116° Southeast  Level FlightAware Approximate
03:43PM 52.3500 -151.0833 117° Southeast 626 720 36,000  Level Oakland Oceanic (ODAPS)
03:44PM 52.6689 -152.0960 117° Southeast  Level FlightAware Approximate
03:45PM 52.6011 -151.8750 117° Southeast  Level FlightAware Approximate
03:46PM 52.5328 -151.6548 117° Southeast  Level FlightAware Approximate
03:47PM 52.4642 -151.4352 117° Southeast  Level FlightAware Approximate
03:48PM 52.3951 -151.2164 117° Southeast  Level FlightAware Approximate
03:48PM 52.0000 -150.0000 111° Southeast 607 699 36,000  Level Oakland Oceanic (ODAPS)
03:49PM 52.3257 -150.9982 117° Southeast  Level FlightAware Approximate
03:50PM 51.8801 -149.5070 112° Southeast 626 720 36,000  Level FlightAware Transoceanic
03:51PM 51.8194 -149.2614 112° Southeast 626 720 36,000  Level FlightAware Transoceanic
03:52PM 51.7582 -149.0166 112° Southeast 626 720 36,000  Level FlightAware Transoceanic
03:53PM 51.6965 -148.7724 112° Southeast 626 720 36,000  Level FlightAware Transoceanic
03:54PM 51.6253 -148.4941 113° Southeast 607 699 36,000  Level FlightAware Transoceanic
03:55PM 51.5610 -148.2455 113° Southeast 607 699 36,000  Level FlightAware Transoceanic
03:56PM 51.4962 -147.9977 113° Southeast 607 699 36,000  Level FlightAware Transoceanic
03:57PM 51.4309 -147.7506 113° Southeast 607 699 36,000  Level FlightAware Transoceanic
03:58PM 51.3650 -147.5042 113° Southeast 607 699 36,000  Level FlightAware Transoceanic
03:59PM 51.2986 -147.2584 113° Southeast 607 699 36,000  Level FlightAware Transoceanic
04:00PM 51.2317 -147.0134 114° Southeast 607 699 36,000  Level FlightAware Transoceanic
04:01PM 51.1643 -146.7692 114° Southeast 607 699 36,000  Level FlightAware Transoceanic
04:02PM 51.0964 -146.5256 114° Southeast 607 699 36,000  Level FlightAware Transoceanic
04:03PM 51.0280 -146.2827 114° Southeast 607 699 36,000  Level FlightAware Transoceanic
04:04PM 50.9591 -146.0406 114° Southeast 607 699 36,000  Level FlightAware Transoceanic
04:05PM 50.8897 -145.7992 115° Southeast 607 699 36,000  Level FlightAware Transoceanic
04:06PM 50.8198 -145.5585 115° Southeast 607 699 36,000  Level FlightAware Transoceanic
04:07PM 50.7494 -145.3185 115° Southeast 607 699 36,000  Level FlightAware Transoceanic
04:08PM 50.6785 -145.0793 115° Southeast 607 699 36,000  Level FlightAware Transoceanic
04:09PM 50.6071 -144.8408 115° Southeast 607 699 36,000  Level FlightAware Transoceanic
04:10PM 50.5352 -144.6030 116° Southeast 607 699 36,000 600 Level FlightAware Transoceanic
04:10PM 50.4667 -144.4000 116° Southeast 610 702 37,000  Climbing Oakland Oceanic (ODAPS)
04:11PM 50.4628 -144.3659 116° Southeast 607 699 36,000 -780 Descending FlightAware Transoceanic
04:12PM 50.3900 -144.1295 116° Southeast 607 699 36,000  Level FlightAware Transoceanic
04:13PM 50.3167 -143.8939 116° Southeast 607 699 36,000  Level FlightAware Transoceanic
04:14PM 50.2429 -143.6591 116° Southeast 607 699 36,000  Level FlightAware Transoceanic
04:15PM 50.1687 -143.4249 116° Southeast 607 699 36,000 480 Level FlightAware Transoceanic
04:16PM 50.0216 -142.9818 117° Southeast 610 702 37,000 480 Climbing FlightAware Transoceanic
04:17PM 49.9458 -142.7480 117° Southeast 610 702 37,000  Level FlightAware Transoceanic
04:18PM 49.8695 -142.5149 117° Southeast 610 702 37,000  Level FlightAware Transoceanic
04:19PM 49.7927 -142.2826 117° Southeast 610 702 37,000  Level FlightAware Transoceanic
04:20PM 49.7155 -142.0510 117° Southeast 610 702 37,000  Level FlightAware Transoceanic
04:21PM 49.6378 -141.8202 118° Southeast 610 702 37,000  Level FlightAware Transoceanic
04:22PM 49.5596 -141.5901 118° Southeast 610 702 37,000  Level FlightAware Transoceanic
04:23PM 49.4810 -141.3607 118° Southeast 610 702 37,000  Level FlightAware Transoceanic
04:24PM 49.4020 -141.1321 118° Southeast 610 702 37,000  Level FlightAware Transoceanic
04:25PM 49.3225 -140.9042 118° Southeast 610 702 37,000  Level FlightAware Transoceanic
04:26PM 49.2425 -140.6770 118° Southeast 610 702 37,000  Level FlightAware Transoceanic
04:27PM 49.1621 -140.4506 119° Southeast 610 702 37,000  Level FlightAware Transoceanic
04:28PM 49.0813 -140.2249 119° Southeast 610 702 37,000  Level FlightAware Transoceanic
04:29PM 49.0000 -140.0000 122° Southeast 610 702 37,000  Level FlightAware Transoceanic
04:30PM 48.9188 -139.8048 122° Southeast 610 702 37,000  Level FlightAware Transoceanic
04:30PM 49.0000 -140.0000 122° Southeast 558 642 37,000  Level Oakland Oceanic (ODAPS)
04:31PM 48.8373 -139.6102 123° Southeast 610 702 37,000  Level FlightAware Transoceanic
04:32PM 48.7554 -139.4163 123° Southeast 610 702 37,000  Level FlightAware Transoceanic
04:33PM 48.6733 -139.2230 123° Southeast 610 702 37,000  Level FlightAware Transoceanic
04:34PM 48.5908 -139.0303 123° Southeast 610 702 37,000  Level FlightAware Transoceanic
04:35PM 48.5079 -138.8383 123° Southeast 610 702 37,000  Level FlightAware Transoceanic
04:36PM 48.4248 -138.6469 123° Southeast 610 702 37,000  Level FlightAware Transoceanic
04:37PM 48.4142 -138.6226 123° Southeast 558 642 37,000  Level FlightAware Transoceanic
04:37PM 48.4333 -138.6500 123° Southeast 553 636 37,000  Level Oakland Oceanic (ODAPS)
04:38PM 48.3292 -138.4284 123° Southeast 558 642 37,000  Level FlightAware Transoceanic
04:39PM 48.2439 -138.2349 124° Southeast 558 642 37,000  Level FlightAware Transoceanic
04:40PM 48.1582 -138.0420 124° Southeast 558 642 37,000  Level FlightAware Transoceanic
04:41PM 48.0722 -137.8498 124° Southeast 558 642 37,000  Level FlightAware Transoceanic
04:42PM 47.9859 -137.6582 124° Southeast 558 642 37,000  Level FlightAware Transoceanic
04:43PM 47.9163 -137.4906 124° Southeast 553 636 37,000  Level FlightAware Transoceanic
04:44PM 47.8290 -137.2997 124° Southeast 553 636 37,000  Level FlightAware Transoceanic
04:45PM 47.7413 -137.1093 124° Southeast 553 636 37,000  Level FlightAware Transoceanic
04:46PM 47.6534 -136.9196 125° Southeast 553 636 37,000  Level FlightAware Transoceanic
04:47PM 47.5652 -136.7306 125° Southeast 553 636 37,000  Level FlightAware Transoceanic
04:48PM 47.4766 -136.5422 125° Southeast 553 636 37,000  Level FlightAware Transoceanic
04:49PM 47.3877 -136.3544 125° Southeast 553 636 37,000  Level FlightAware Transoceanic
04:50PM 47.2986 -136.1673 125° Southeast 553 636 37,000  Level FlightAware Transoceanic
04:51PM 47.2091 -135.9808 125° Southeast 553 636 37,000  Level FlightAware Transoceanic
04:52PM 47.1194 -135.7949 125° Southeast 553 636 37,000  Level FlightAware Transoceanic
04:53PM 47.0293 -135.6097 126° Southeast 553 636 37,000  Level FlightAware Transoceanic
04:54PM 46.9389 -135.4250 126° Southeast 553 636 37,000  Level FlightAware Transoceanic
04:55PM 46.8482 -135.2410 126° Southeast 553 636 37,000  Level FlightAware Transoceanic
04:56PM 46.7573 -135.0576 126° Southeast 553 636 37,000  Level FlightAware Transoceanic
04:57PM 46.6660 -134.8749 126° Southeast 553 636 37,000  Level FlightAware Transoceanic
04:58PM 46.5745 -134.6927 126° Southeast 553 636 37,000  Level FlightAware Transoceanic
04:59PM 46.4827 -134.5112 126° Southeast 553 636 37,000  Level FlightAware Transoceanic
05:00PM 46.3905 -134.3303 127° Southeast 553 636 37,000  Level FlightAware Transoceanic
05:01PM 46.2981 -134.1500 127° Southeast 553 636 37,000  Level FlightAware Transoceanic
05:02PM 46.2055 -133.9703 127° Southeast 553 636 37,000  Level FlightAware Transoceanic
05:03PM 46.1125 -133.7912 127° Southeast 553 636 37,000  Level FlightAware Transoceanic
05:03PM 46.0500 -133.6667 127° Southeast 555 639 37,000  Level Oakland Oceanic (ODAPS)
05:04PM 46.0193 -133.6127 127° Southeast 553 636 37,000  Level FlightAware Transoceanic
05:05PM 45.9258 -133.4348 127° Southeast 553 636 37,000  Level FlightAware Transoceanic
05:06PM 45.8320 -133.2575 127° Southeast 553 636 37,000  Level FlightAware Transoceanic
05:07PM 45.7379 -133.0809 127° Southeast 553 636 37,000  Level FlightAware Transoceanic
05:08PM 45.6436 -132.9048 128° Southeast 553 636 37,000  Level FlightAware Transoceanic
05:09PM 45.5490 -132.7293 128° Southeast 553 636 37,000  Level FlightAware Transoceanic
05:10PM 45.4764 -132.5921 128° Southeast 555 639 37,000  Level FlightAware Transoceanic
05:11PM 45.3798 -132.4151 128° Southeast 555 639 37,000  Level FlightAware Transoceanic
05:12PM 45.2830 -132.2388 128° Southeast 555 639 37,000  Level FlightAware Transoceanic
05:13PM 45.1858 -132.0630 128° Southeast 555 639 37,000  Level FlightAware Transoceanic
05:14PM 45.0885 -131.8878 128° Southeast 555 639 37,000  Level FlightAware Transoceanic
05:15PM 44.9908 -131.7133 128° Southeast 555 639 37,000  Level FlightAware Transoceanic
05:16PM 44.8929 -131.5393 129° Southeast 555 639 37,000  Level FlightAware Transoceanic
05:17PM 44.7947 -131.3660 129° Southeast 555 639 37,000  Level FlightAware Transoceanic
05:18PM 44.6963 -131.1932 129° Southeast 555 639 37,000  Level FlightAware Transoceanic
05:19PM 44.5976 -131.0210 129° Southeast 555 639 37,000  Level FlightAware Transoceanic
05:20PM 44.4986 -130.8494 129° Southeast 555 639 37,000  Level FlightAware Transoceanic
05:21PM 44.3994 -130.6783 129° Southeast 555 639 37,000  Level FlightAware Transoceanic
05:22PM 44.2999 -130.5079 129° Southeast 555 639 37,000  Level FlightAware Transoceanic
05:23PM 44.2002 -130.3380 129° Southeast 555 639 37,000  Level FlightAware Transoceanic
05:24PM 44.1002 -130.1687 130° Southeast 555 639 37,000  Level FlightAware Transoceanic
05:25PM 44.0000 -130.0000 134° Southeast 555 639 37,000  Level FlightAware Transoceanic
05:25PM 44.0000 -130.0000 134° Southeast 543 625 37,000  Level Oakland Oceanic (ODAPS)
05:26PM 43.8974 -129.8508 134° Southeast 555 639 37,000  Level FlightAware Transoceanic
05:27PM 43.7946 -129.7022 134° Southeast 555 639 37,000  Level FlightAware Transoceanic
05:28PM 43.6916 -129.5541 134° Southeast 555 639 37,000  Level FlightAware Transoceanic
05:29PM 43.5884 -129.4065 134° Southeast 555 639 37,000  Level FlightAware Transoceanic
05:30PM 43.4850 -129.2594 134° Southeast 555 639 37,000  Level FlightAware Transoceanic
05:30PM 43.4833 -129.2667 134° Southeast 539 620 37,000  Level Oakland Oceanic (ODAPS)
05:31PM 43.3815 -129.1128 134° Southeast 555 639 37,000  Level FlightAware Transoceanic
05:32PM 43.2777 -128.9666 134° Southeast 543 625 37,000  Level FlightAware Transoceanic
05:33PM 43.1738 -128.8210 134° Southeast 543 625 37,000  Level FlightAware Transoceanic
05:34PM 43.0697 -128.6759 135° Southeast 543 625 37,000  Level FlightAware Transoceanic
05:35PM 42.9654 -128.5313 135° Southeast 543 625 37,000  Level FlightAware Transoceanic
05:36PM 42.8598 -128.3919 135° Southeast 539 620 37,000  Level FlightAware Transoceanic
05:37PM 42.7553 -128.2478 135° Southeast 539 620 37,000  Level FlightAware Transoceanic
05:38PM 42.6505 -128.1042 135° Southeast 539 620 37,000  Level FlightAware Transoceanic
05:39PM 42.5456 -127.9611 135° Southeast 539 620 37,000  Level FlightAware Transoceanic
05:40PM 42.4405 -127.8185 135° Southeast 539 620 37,000  Level FlightAware Transoceanic
05:41PM 42.3353 -127.6763 135° Southeast 539 620 37,000  Level FlightAware Transoceanic
05:42PM 42.2298 -127.5347 135° Southeast 539 620 37,000  Level FlightAware Transoceanic
05:43PM 42.1242 -127.3934 135° Southeast 539 620 37,000  Level FlightAware Transoceanic
05:44PM 42.0184 -127.2527 135° Southeast 539 620 37,000  Level FlightAware Transoceanic
05:44PM 42.0269 -127.2767 133° Southeast 537 618 37,000  Level Oakland Center
05:45PM 41.9124 -127.1125 136° Southeast 539 620 37,000  Level FlightAware Transoceanic
05:45PM 41.9206 -127.1364 136° Southeast 537 618 37,000  Level Oakland Center
05:46PM 41.8063 -126.9727 136° Southeast 539 620 37,000 -120 Level FlightAware Transoceanic
05:46PM 41.8175 -126.9967 135° Southeast 534 615 36,900  Descending Oakland Center
05:47PM 41.7000 -126.8333 133° Southeast 539 620 37,000 60 Climbing FlightAware Transoceanic
05:47PM 41.7139 -126.8608 136° Southeast 528 608 37,000  Level Oakland Center
05:48PM 41.6002 -126.6909 133° Southeast 539 620 37,000  Level FlightAware Transoceanic
05:48PM 41.5917 -126.6967 135° Southeast 521 600 37,000  Level Seattle Center
05:49PM 41.5001 -126.5488 133° Southeast 539 620 37,000 -120 Level FlightAware Transoceanic
05:49PM 41.5133 -126.5831 133° Southeast 523 602 36,900 -120 Descending Oakland Center
05:50PM 41.3978 -126.4167 133° Southeast 517 595 36,900  Level Oakland Center
05:51PM 41.3011 -126.2789 133° Southeast 514 592 36,900  Level Oakland Center
05:52PM 41.2044 -126.1406 133° Southeast 513 590 37,000  Climbing Oakland Center
05:53PM 41.1061 -126.0022 133° Southeast 514 592 37,000 -60 Level Oakland Center
05:54PM 41.0003 -125.8744 138° Southeast 513 590 36,900 -60 Descending Seattle Center
05:55PM 40.8872 -125.7528 141° Southeast 523 602 36,900  Level Seattle Center
05:56PM 40.7769 -125.6314 140° Southeast 522 601 36,900  Level Seattle Center
06:02PM 40.1320 -124.9470 140° Southeast 527 606 37,000  Climbing FlightAware
06:02PM 40.0670 -124.8780 141° Southeast 527 606 37,000  Level FlightAware
06:03PM 40.0010 -124.8090 141° Southeast 527 606 37,000  Level FlightAware
06:03PM 39.9260 -124.7310 141° Southeast 523 602 37,000  Level FlightAware
06:04PM 39.8540 -124.6550 141° Southeast 529 609 37,000  Level FlightAware
06:05PM 39.7810 -124.5790 141° Southeast 527 606 37,000  Level FlightAware
06:05PM 39.7160 -124.5120 142° Southeast 527 606 37,000  Level FlightAware
06:06PM 39.6460 -124.4390 141° Southeast 518 596 37,000 -120 Level FlightAware
06:06PM 39.5740 -124.3650 142° Southeast 516 594 36,900 -780 Descending FlightAware
06:07PM 39.5080 -124.2970 142° Southeast 519 597 36,100 -1,320 Descending FlightAware
06:08PM 39.4440 -124.2320 142° Southeast 520 598 35,300 -1,200 Descending FlightAware
06:08PM 39.3750 -124.1610 141° Southeast 516 594 34,700 -1,020 Descending FlightAware
06:09PM 39.3100 -124.0940 141° Southeast 516 594 34,200 -900 Descending FlightAware
06:09PM 39.2450 -124.0290 142° Southeast 513 590 33,700 -960 Descending FlightAware
06:10PM 39.1810 -123.9630 141° Southeast 501 577 33,100 -1,560 Descending FlightAware
06:11PM 39.1160 -123.8980 142° Southeast 492 566 31,900 -1,920 Descending FlightAware
06:11PM 39.0320 -123.8120 141° Southeast 487 560 30,400 -1,980 Descending FlightAware
06:12PM 38.9720 -123.7530 143° Southeast 475 547 29,300 -2,100 Descending FlightAware
06:13PM 38.8970 -123.6760 141° Southeast 472 543 27,900 -1,920 Descending FlightAware
06:13PM 38.8450 -123.6240 142° Southeast 465 535 27,000 -1,740 Descending FlightAware
06:14PM 38.7850 -123.5640 142° Southeast 455 524 26,000 -1,740 Descending FlightAware
06:14PM 38.7080 -123.4870 142° Southeast 446 513 24,600 -1,800 Descending FlightAware
06:15PM 38.6470 -123.4260 142° Southeast 440 506 23,500 -1,560 Descending FlightAware
06:16PM 38.6050 -123.3850 143° Southeast 137 158 22,700 -1,440 Descending FlightAware
06:16PM 38.5330 -123.3140 142° Southeast 425 489 21,800 -1,500 Descending FlightAware
06:17PM 38.4510 -123.2320 142° Southeast 418 481 20,500 -1,440 Descending FlightAware
06:18PM 38.4050 -123.1870 143° Southeast 414 476 19,800 -1,260 Descending FlightAware
06:18PM 38.3410 -123.1240 142° Southeast 401 461 19,000 -1,440 Descending FlightAware
06:19PM 38.2890 -123.0730 142° Southeast 395 455 18,000 -1,800 Descending FlightAware
06:20PM 38.2430 -123.0280 142° Southeast 394 453 17,000 -1,800 Descending FlightAware
06:20PM 38.1960 -122.9820 142° Southeast 389 448 16,100 -1,620 Descending FlightAware
06:21PM 38.1430 -122.9290 142° Southeast 383 441 15,100 -1,560 Descending FlightAware
06:21PM 38.0930 -122.8800 142° Southeast 377 434 14,100 -1,620 Descending FlightAware
06:22PM 38.0400 -122.8260 141° Southeast 374 430 13,100 -1,680 Descending FlightAware
06:23PM 37.9970 -122.7780 139° Southeast 367 422 12,200 -1,560 Descending FlightAware
06:23PM 37.9520 -122.7290 139° Southeast 363 418 11,300 -1,140 Descending FlightAware
06:24PM 37.9080 -122.6810 139° Southeast 339 390 10,900 -360 Descending FlightAware
06:24PM 37.8680 -122.6390 140° Southeast 310 357 10,900  Level FlightAware
06:25PM 37.8335 -122.6030 141° Southeast 301 346 10,900  Level FlightAware ADS-B
06:25PM 37.7930 -122.5590 139° Southeast 304 350 10,900  Level FlightAware
06:26PM 37.7708 -122.5350 139° Southeast 306 352 10,900  Level FlightAware ADS-B
06:27PM 37.7206 -122.4820 140° Southeast 303 349 10,900  Level FlightAware ADS-B
06:27PM 37.6898 -122.4490 140° Southeast 272 313 10,900  Level FlightAware ADS-B
06:28PM 37.6608 -122.4180 140° Southeast 270 311 10,900  Level FlightAware ADS-B
06:28PM 37.6304 -122.3850 139° Southeast 267 307 10,900  Level FlightAware ADS-B
06:28PM 37.6156 -122.3710 143° Southeast 271 312 10,900 -300 Level FlightAware ADS-B
06:29PM 37.6051 -122.3640 152° Southeast 270 311 10,800 -1,200 Descending FlightAware ADS-B
06:29PM 37.5711 -122.3430 154° Southeast 266 306 10,100 -1,500 Descending FlightAware ADS-B
06:29PM 37.5592 -122.3370 158° South 266 306 9,800 -2,100 Descending FlightAware ADS-B
06:29PM 37.5419 -122.3270 155° Southeast 267 307 9,200 -2,340 Descending FlightAware ADS-B
06:30PM 37.5242 -122.3180 158° South 266 306 8,600 -2,220 Descending FlightAware ADS-B
06:30PM 37.5070 -122.3090 157° South 264 304 8,100 -1,860 Descending FlightAware ADS-B
06:30PM 37.4988 -122.3040 154° Southeast 261 300 7,900 -1,680 Descending FlightAware ADS-B
06:30PM 37.4951 -122.3020 157° South 259 298 7,800 -2,220 Descending FlightAware ADS-B
06:30PM 37.4878 -122.2950 143° Southeast 253 291 7,500 -2,040 Descending FlightAware ADS-B
06:30PM 37.4849 -122.2910 132° Southeast 251 289 7,400 -1,740 Descending FlightAware ADS-B
06:30PM 37.4827 -122.2880 133° Southeast 247 284 7,300 -1,020 Descending FlightAware ADS-B
06:30PM 37.4806 -122.2840 123° Southeast 244 281 7,300 -2,040 Level FlightAware ADS-B
06:31PM 37.4785 -122.2800 123° Southeast 242 278 7,100 -2,700 Descending FlightAware ADS-B
06:31PM 37.4751 -122.2730 121° Southeast 240 276 6,900 -1,800 Descending FlightAware ADS-B
06:31PM 37.4662 -122.2520 118° Southeast 238 274 6,400 -1,800 Descending FlightAware ADS-B
06:31PM 37.4578 -122.2320 118° Southeast 235 270 5,900 -1,980 Descending FlightAware ADS-B
06:31PM 37.4501 -122.2140 118° Southeast 232 267 5,400 -2,040 Descending FlightAware ADS-B
06:32PM 37.4473 -122.2070 117° Southeast 231 266 5,200 -2,400 Descending FlightAware ADS-B
06:32PM 37.4458 -122.2020 111° Southeast 232 267 5,000 -2,280 Descending FlightAware ADS-B
06:32PM 37.4449 -122.1970 103° East 230 265 4,900 -2,040 Descending FlightAware ADS-B
06:32PM 37.4447 -122.1910 92° East 227 261 4,700 -2,280 Descending FlightAware ADS-B
06:32PM 37.4450 -122.1860 86° East 225 259 4,600 -1,380 Descending FlightAware ADS-B
06:32PM 37.4466 -122.1790 74° East 222 255 4,500 -1,140 Descending FlightAware ADS-B
06:32PM 37.4493 -122.1730 60° Northeast 220 253 4,400 -720 Descending FlightAware ADS-B
06:32PM 37.4516 -122.1700 46° Northeast 218 251 4,400 -780 Level FlightAware ADS-B
06:32PM 37.4545 -122.1660 48° Northeast 217 250 4,300 -1,740 Descending FlightAware ADS-B
06:32PM 37.4572 -122.1640 30° Northeast 216 249 4,200 -1,500 Descending FlightAware ADS-B
06:32PM 37.4611 -122.1610 31° Northeast 216 249 4,100 -1,020 Descending FlightAware ADS-B
06:32PM 37.4680 -122.1570 25° Northeast 217 250 4,000 -960 Descending FlightAware ADS-B
06:32PM 37.4735 -122.1540 23° Northeast 216 249 3,900 -480 Descending FlightAware ADS-B
06:33PM 37.4806 -122.1530 North 217 250 3,900 -420 Level FlightAware ADS-B
06:33PM 37.4890 -122.1510 11° North 218 251 3,800 -1,020 Descending FlightAware ADS-B
06:33PM 37.5043 -122.1500 North 213 245 3,500 -1,320 Descending FlightAware ADS-B
06:33PM 37.5167 -122.1480 North 202 232 3,200 -1,140 Descending FlightAware ADS-B
06:33PM 37.5195 -122.1480 360° North 199 229 3,200  Level FlightAware ADS-B
06:33PM 37.5223 -122.1490 344° North 195 224 3,200  Level FlightAware ADS-B
06:33PM 37.5263 -122.1510 338° Northwest 193 222 3,200  Level FlightAware ADS-B
06:33PM 37.5293 -122.1530 332° Northwest 193 222 3,200  Level FlightAware ADS-B
06:34PM 37.5313 -122.1550 322° Northwest 193 222 3,200 -900 Level FlightAware ADS-B
06:34PM 37.5336 -122.1590 306° West 195 224 3,100 -900 Descending FlightAware ADS-B
06:34PM 37.5348 -122.1620 297° West 196 226 3,100 -900 Level FlightAware ADS-B
06:34PM 37.5357 -122.1660 286° West 197 227 3,000 -1,140 Descending FlightAware ADS-B
06:34PM 37.5370 -122.1750 280° West 195 224 2,900 -1,140 Descending FlightAware ADS-B
06:34PM 37.5377 -122.1780 286° West 195 224 2,800 -1,500 Descending FlightAware ADS-B
06:34PM 37.5391 -122.1830 289° West 194 223 2,700 -780 Descending FlightAware ADS-B
06:34PM 37.5405 -122.1880 289° West 195 224 2,700 -1,020 Level FlightAware ADS-B
06:34PM 37.5434 -122.1960 295° West 195 224 2,500 -900 Descending FlightAware ADS-B
06:34PM 37.5481 -122.2070 298° West 193 222 2,400 -900 Descending FlightAware ADS-B
06:35PM 37.5544 -122.2220 298° West 191 220 2,100 -1,020 Descending FlightAware ADS-B
06:35PM 37.5605 -122.2370 297° West 184 212 1,900 -960 Descending FlightAware ADS-B
06:35PM 37.5670 -122.2520 299° West 173 199 1,600 -960 Descending FlightAware ADS-B
06:35PM 37.5729 -122.2660 298° West 157 181 1,400 -780 Descending FlightAware ADS-B
06:36PM 37.5779 -122.2780 298° West 149 171 1,200 -600 Descending FlightAware ADS-B
06:36PM 37.5827 -122.2890 299° West 145 167 1,100 -600 Descending FlightAware ADS-B
06:36PM 37.5880 -122.3020 297° West 146 168 900 -780 Descending FlightAware ADS-B
06:36PM 37.5924 -122.3120 299° West 146 168 700 -840 Descending FlightAware ADS-B
06:37PM 37.5976 -122.3250 297° West 145 167 500 -780 Descending FlightAware ADS-B
06:37PM 37.6025 -122.3360 299° West 140 161 300 -720 Descending FlightAware ADS-B
06:37PM 37.6055 -122.3430 298° West 138 159 200 -600 Descending FlightAware ADS-B
06:37PM 37.6097 -122.3540 296° West 133 153 -840 Descending FlightAware ADS-B
06:38PM 37.6146 -122.3650 299° West 130 150  Level FlightAware ADS-B